Time;durP1;ratioP1;P1;durP2;ratioP2;P2;SDS_P1;SDS_P2;PMS_P1;PMS_P2;Temp;Humidity;BMP_temperature;BMP_pressure;BME280_temperature;BME280_humidity;BME280_pressure;Samples;Min_cycle;Max_cycle;Signal;HPM_P1;HPM_P2
2021/09/21 00:00:40;;;;;;;14.23;9.00;;;384.90;2329.60;;;;;;4973873;28;20030;-80
2021/09/21 00:03:06;;;;;;;16.45;9.85;;;384.90;2329.60;;;;;;4973614;28;20029;-81
2021/09/21 00:05:32;;;;;;;14.88;9.13;;;409.60;2355.20;;;;;;4974035;28;20110;-80
2021/09/21 00:07:58;;;;;;;18.27;10.80;;;409.60;2355.20;;;;;;4975073;28;20055;-82
2021/09/21 00:10:24;;;;;;;16.45;9.98;;;409.70;2355.20;;;;;;4974162;28;20490;-81
2021/09/21 00:12:50;;;;;;;14.07;9.02;;;409.70;2355.20;;;;;;4973409;28;20027;-81
2021/09/21 00:15:17;;;;;;;18.70;9.82;;;409.70;2355.20;;;;;;4985755;28;20126;-81
2021/09/21 00:17:44;;;;;;;15.15;9.45;;;409.80;2355.20;;;;;;4973562;28;20475;-82
2021/09/21 00:20:11;;;;;;;15.02;9.07;;;409.80;2355.20;;;;;;4973963;28;20050;-83
2021/09/21 00:22:38;;;;;;;16.10;9.32;;;409.80;2355.20;;;;;;4973211;28;20046;-84
2021/09/21 00:25:04;;;;;;;15.95;10.75;;;409.80;2355.20;;;;;;4973350;28;20126;-83
2021/09/21 00:27:30;;;;;;;17.23;10.55;;;409.80;2355.20;;;;;;4973319;28;20038;-83
2021/09/21 00:29:55;;;;;;;14.57;9.07;;;409.80;2355.20;;;;;;4973344;28;20023;-83
2021/09/21 00:32:25;;;;;;;15.77;9.43;;;409.90;2355.20;;;;;;4973422;28;20054;-83
2021/09/21 00:34:52;;;;;;;15.05;11.02;;;409.80;2355.20;;;;;;4973724;28;20533;-83
2021/09/21 00:37:18;;;;;;;15.10;8.90;;;409.80;2355.20;;;;;;4973804;28;20046;-83
2021/09/21 00:39:44;;;;;;;15.40;9.02;;;409.80;2355.20;;;;;;4983548;28;20023;-83
2021/09/21 00:42:11;;;;;;;15.32;8.85;;;409.80;2355.20;;;;;;4973526;28;20030;-83
2021/09/21 00:44:38;;;;;;;14.18;8.77;;;410.00;2355.20;;;;;;4973054;28;20070;-83
2021/09/21 00:47:05;;;;;;;13.63;9.38;;;409.80;2355.20;;;;;;4973378;28;20038;-83
2021/09/21 00:49:32;;;;;;;12.35;8.73;;;409.80;2355.20;;;;;;4973109;28;20026;-83
2021/09/21 00:52:01;;;;;;;15.05;10.02;;;409.80;2355.20;;;;;;4972646;28;20376;-83
2021/09/21 00:54:27;;;;;;;14.13;9.18;;;409.80;2355.20;;;;;;4973416;28;20026;-83
2021/09/21 00:56:55;;;;;;;15.55;10.02;;;409.80;2355.20;;;;;;4983762;28;20030;-83
2021/09/21 00:59:22;;;;;;;13.63;8.40;;;409.80;2355.20;;;;;;4973201;28;20031;-84
2021/09/21 01:01:48;;;;;;;12.63;8.00;;;409.70;2355.20;;;;;;4973142;28;20049;-84
2021/09/21 01:04:15;;;;;;;14.93;8.98;;;409.80;2355.20;;;;;;4973107;28;20181;-83
2021/09/21 01:06:41;;;;;;;14.07;9.23;;;409.80;2355.20;;;;;;4973523;28;20048;-84
2021/09/21 01:09:21;;;;;;;17.17;10.32;;;409.80;2355.20;;;;;;4974023;28;20023;-84
2021/09/21 01:11:49;;;;;;;15.10;10.23;;;409.80;2355.20;;;;;;4957539;28;20166;-83
2021/09/21 01:14:16;;;;;;;14.35;9.32;;;409.80;2355.20;;;;;;4974292;28;20039;-83
2021/09/21 01:16:42;;;;;;;14.45;8.65;;;409.80;2355.20;;;;;;4986184;28;20031;-83
2021/09/21 01:19:11;;;;;;;15.73;8.93;;;409.80;2355.20;;;;;;4977779;28;20031;-82
2021/09/21 01:21:37;;;;;;;16.25;9.95;;;409.90;2355.20;;;;;;4980328;28;20015;-84
2021/09/21 01:24:04;;;;;;;14.95;9.05;;;409.90;2355.20;;;;;;4979451;28;20046;-83
2021/09/21 01:26:30;;;;;;;15.50;9.02;;;409.90;2355.20;;;;;;4980328;28;20464;-84
2021/09/21 01:28:56;;;;;;;14.75;8.60;;;409.90;2355.20;;;;;;4979594;28;20038;-85
2021/09/21 01:31:22;;;;;;;13.90;8.18;;;409.80;2355.20;;;;;;4980171;28;20038;-82
2021/09/21 01:33:50;;;;;;;13.35;8.73;;;409.90;2355.20;;;;;;4980583;28;20054;-83
2021/09/21 01:36:21;;;;;;;16.00;9.77;;;409.90;2355.20;;;;;;4979103;28;20098;-84
2021/09/21 01:38:48;;;;;;;15.43;9.07;;;409.80;2355.20;;;;;;4979203;28;20558;-83
2021/09/21 01:41:14;;;;;;;16.92;10.70;;;409.90;2355.20;;;;;;4976606;28;20019;-82
2021/09/21 01:43:42;;;;;;;13.18;8.63;;;409.80;2355.20;;;;;;4972122;28;20031;-83
2021/09/21 01:46:09;;;;;;;13.85;9.13;;;409.80;2355.20;;;;;;4985169;28;20038;-81
2021/09/21 01:48:35;;;;;;;14.40;8.77;;;409.80;2355.20;;;;;;4972208;28;20471;-84
2021/09/21 01:51:12;;;;;;;17.88;9.98;;;409.80;2355.20;;;;;;4974111;28;20049;-82
2021/09/21 01:59:11;;;;;;;13.05;9.13;;;409.70;2355.20;;;;;;4933228;29;20396;-82
2021/09/21 02:01:40;;;;;;;16.77;9.75;;;409.70;2355.20;;;;;;4927477;29;20040;-84
2021/09/21 02:04:08;;;;;;;12.43;8.60;;;409.60;2355.20;;;;;;4922199;29;20039;-83
2021/09/21 02:06:39;;;;;;;19.63;10.75;;;409.60;2355.20;;;;;;4921883;29;20042;-84
2021/09/21 02:09:11;;;;;;;15.23;9.52;;;409.60;2355.20;;;;;;4922184;29;20125;-82
2021/09/21 02:11:38;;;;;;;11.90;7.35;;;409.60;2355.20;;;;;;4922129;29;20031;-83
2021/09/21 02:14:08;;;;;;;14.25;8.75;;;409.70;2355.20;;;;;;4925292;29;20035;-82
2021/09/21 02:16:37;;;;;;;13.10;9.00;;;409.70;2355.20;;;;;;4926502;29;20032;-80
2021/09/21 02:19:03;;;;;;;11.55;7.95;;;409.60;2355.20;;;;;;4930488;29;20047;-83
2021/09/21 02:21:29;;;;;;;12.93;8.35;;;409.60;2355.20;;;;;;4924457;29;20372;-82
2021/09/21 02:23:57;;;;;;;16.13;8.85;;;409.60;2355.20;;;;;;4923635;29;20087;-83
2021/09/21 02:26:23;;;;;;;11.20;7.65;;;409.60;2355.20;;;;;;4927239;29;20039;-83
2021/09/21 02:28:49;;;;;;;12.27;8.00;;;409.60;2355.20;;;;;;4929496;29;20039;-83
2021/09/21 02:31:15;;;;;;;12.68;8.60;;;409.60;2355.20;;;;;;4929057;29;20032;-82
2021/09/21 02:33:40;;;;;;;12.57;8.50;;;409.60;2355.20;;;;;;4973756;28;20101;-84
2021/09/21 02:36:06;;;;;;;12.85;8.75;;;384.90;2329.60;;;;;;4983950;28;20117;-84
2021/09/21 02:38:33;;;;;;;11.00;7.15;;;384.80;2329.60;;;;;;4977727;28;20031;-83
2021/09/21 02:40:59;;;;;;;13.07;8.13;;;384.80;2329.60;;;;;;4976006;28;20022;-82
2021/09/21 02:43:25;;;;;;;13.25;8.45;;;384.80;2329.60;;;;;;4975639;28;20509;-82
2021/09/21 02:45:51;;;;;;;13.02;8.07;;;384.80;2329.60;;;;;;4975837;28;20058;-82
2021/09/21 02:48:25;;;;;;;16.63;7.93;;;384.90;2329.60;;;;;;4978049;28;20023;-83
2021/09/21 02:50:54;;;;;;;12.15;8.20;;;384.90;2329.60;;;;;;4980752;28;20406;-84
2021/09/21 02:53:21;;;;;;;12.05;7.38;;;384.90;2329.60;;;;;;4975480;28;20106;-83
2021/09/21 02:55:46;;;;;;;13.73;8.32;;;384.90;2329.60;;;;;;4975599;28;20063;-83
2021/09/21 02:58:13;;;;;;;13.73;7.93;;;409.60;2355.20;;;;;;4974769;28;20058;-82
2021/09/21 03:00:39;;;;;;;15.13;9.85;;;384.90;2329.60;;;;;;4976260;28;20383;-83
2021/09/21 03:03:06;;;;;;;16.40;9.32;;;384.90;2329.60;;;;;;4974894;28;20391;-83
2021/09/21 03:05:38;;;;;;;17.50;9.45;;;384.80;2329.60;;;;;;4976329;28;20038;-80
2021/09/21 03:08:16;;;;;;;14.70;8.93;;;384.80;2329.60;;;;;;4975494;28;20023;-83
2021/09/21 03:11:03;;;;;;;14.02;8.55;;;384.80;2329.60;;;;;;4975409;28;20030;-83
2021/09/21 03:18:39;;;;;;;13.13;9.05;;;384.60;2329.60;;;;;;4976238;28;20419;-83
2021/09/21 03:21:06;;;;;;;14.30;8.98;;;384.60;2329.60;;;;;;4976784;28;20031;-83
2021/09/21 03:23:32;;;;;;;14.82;8.27;;;384.60;2329.60;;;;;;4976420;28;20039;-80
2021/09/21 03:25:57;;;;;;;14.50;7.95;;;384.60;2329.60;;;;;;4977305;28;20498;-81
2021/09/21 03:28:24;;;;;;;13.38;8.70;;;384.70;2329.60;;;;;;4980155;28;20411;-83
2021/09/21 03:30:52;;;;;;;15.10;9.30;;;384.70;2329.60;;;;;;4983078;28;20011;-80
2021/09/21 03:33:18;;;;;;;12.77;8.35;;;384.70;2329.60;;;;;;4978550;28;20098;-80
2021/09/21 03:35:45;;;;;;;12.68;8.52;;;384.70;2329.60;;;;;;4975883;28;20475;-80
2021/09/21 03:38:11;;;;;;;14.38;9.13;;;384.80;2329.60;;;;;;4974788;28;20097;-80
2021/09/21 03:40:37;;;;;;;14.90;9.43;;;384.80;2329.60;;;;;;4958554;28;20039;-82
2021/09/21 03:43:03;;;;;;;13.95;8.68;;;384.80;2329.60;;;;;;4974109;28;20479;-80
2021/09/21 03:45:28;;;;;;;13.38;9.30;;;384.80;2329.60;;;;;;4974233;28;20126;-80
2021/09/21 03:47:54;;;;;;;16.70;10.32;;;384.80;2329.60;;;;;;4981429;28;20049;-79
2021/09/21 03:50:21;;;;;;;14.93;9.73;;;384.80;2329.60;;;;;;4973952;28;20050;-80
2021/09/21 03:52:46;;;;;;;15.30;10.10;;;384.80;2329.60;;;;;;4974791;28;20033;-80
2021/09/21 03:55:14;;;;;;;16.83;9.75;;;384.80;2329.60;;;;;;4975004;28;20410;-80
2021/09/21 03:57:40;;;;;;;16.10;9.95;;;384.80;2329.60;;;;;;4973656;28;20054;-81
2021/09/21 04:00:06;;;;;;;18.10;9.40;;;384.80;2329.60;;;;;;4974822;28;20086;-79
2021/09/21 04:02:34;;;;;;;13.55;9.45;;;384.80;2329.60;;;;;;4976327;28;20047;-84
2021/09/21 04:04:59;;;;;;;14.18;9.43;;;384.80;2329.60;;;;;;4979303;28;20041;-83
2021/09/21 04:07:25;;;;;;;14.75;9.70;;;384.70;2329.60;;;;;;4973695;28;20022;-81
2021/09/21 04:09:51;;;;;;;19.58;11.10;;;384.60;2329.60;;;;;;4973618;28;20134;-81
2021/09/21 04:12:18;;;;;;;14.27;9.60;;;384.60;2329.60;;;;;;4975101;28;20027;-80
2021/09/21 04:14:43;;;;;;;15.88;9.25;;;384.60;2329.60;;;;;;4972330;28;20129;-80
2021/09/21 04:17:09;;;;;;;15.50;10.48;;;384.60;2329.60;;;;;;4974473;28;20514;-80
2021/09/21 04:19:35;;;;;;;15.90;10.18;;;384.60;2329.60;;;;;;4974347;28;20026;-80
2021/09/21 04:22:01;;;;;;;16.48;10.23;;;384.60;2329.60;;;;;;4973608;28;20027;-80
2021/09/21 04:24:27;;;;;;;16.90;11.23;;;384.60;2329.60;;;;;;4972960;28;20035;-80
2021/09/21 04:26:52;;;;;;;20.27;10.77;;;384.60;2329.60;;;;;;4974988;28;20019;-80
2021/09/21 04:29:18;;;;;;;17.20;10.52;;;384.50;2329.60;;;;;;4980558;28;20080;-80
2021/09/21 04:31:45;;;;;;;18.88;11.48;;;384.40;2329.60;;;;;;4973429;28;20038;-80
2021/09/21 04:34:17;;;;;;;18.08;9.43;;;384.40;2329.60;;;;;;4972606;28;20039;-80
2021/09/21 04:36:43;;;;;;;19.27;11.15;;;384.40;2329.60;;;;;;4974358;28;20383;-79
2021/09/21 04:39:09;;;;;;;19.15;10.60;;;384.40;2329.60;;;;;;4973057;28;20042;-79
2021/09/21 04:41:35;;;;;;;19.27;10.43;;;384.40;2329.60;;;;;;4972995;28;20031;-77
2021/09/21 04:44:01;;;;;;;16.55;9.90;;;384.50;2329.60;;;;;;4973432;28;20054;-80
2021/09/21 04:46:28;;;;;;;17.92;12.10;;;384.50;2329.60;;;;;;4980064;28;20030;-80
2021/09/21 04:48:54;;;;;;;20.35;12.93;;;384.50;2329.60;;;;;;4973121;28;20031;-80
2021/09/21 04:51:20;;;;;;;19.23;11.18;;;384.50;2329.60;;;;;;4974489;28;20493;-80
2021/09/21 04:53:45;;;;;;;17.73;11.57;;;384.50;2329.60;;;;;;4973683;28;20089;-81
2021/09/21 04:56:11;;;;;;;19.13;11.82;;;384.50;2329.60;;;;;;4973882;28;20392;-83
2021/09/21 04:58:37;;;;;;;15.68;11.30;;;384.50;2329.60;;;;;;4973201;28;20039;-81
2021/09/21 05:01:03;;;;;;;19.50;11.25;;;384.50;2329.60;;;;;;4974784;28;20015;-80
2021/09/21 05:03:29;;;;;;;19.55;11.48;;;384.50;2329.60;;;;;;4974382;28;20513;-79
2021/09/21 05:05:54;;;;;;;18.45;12.07;;;384.40;2329.60;;;;;;4974532;28;20102;-81
2021/09/21 05:08:20;;;;;;;18.95;10.27;;;384.50;2329.60;;;;;;4980906;28;20125;-80
2021/09/21 05:10:46;;;;;;;16.60;11.38;;;384.50;2329.60;;;;;;4973453;28;20479;-80
2021/09/21 05:13:13;;;;;;;19.65;11.73;;;384.40;2329.60;;;;;;4973666;28;20053;-82
2021/09/21 05:15:39;;;;;;;15.48;9.05;;;384.50;2329.60;;;;;;4974104;28;20085;-80
2021/09/21 05:18:05;;;;;;;17.63;11.18;;;384.50;2329.60;;;;;;4974007;28;20022;-80
2021/09/21 05:20:31;;;;;;;16.35;10.20;;;384.50;2329.60;;;;;;4972333;28;20043;-79
2021/09/21 05:22:56;;;;;;;14.50;9.35;;;384.60;2329.60;;;;;;4972653;28;20113;-81
2021/09/21 05:25:22;;;;;;;16.50;9.77;;;384.60;2329.60;;;;;;4973495;28;20133;-83
2021/09/21 05:27:49;;;;;;;16.58;9.55;;;384.60;2329.60;;;;;;4982879;28;20035;-83
2021/09/21 05:30:15;;;;;;;15.02;9.60;;;384.60;2329.60;;;;;;4974009;28;20122;-82
2021/09/21 05:32:41;;;;;;;19.67;11.43;;;384.60;2329.60;;;;;;4972612;28;20046;-79
2021/09/21 05:35:10;;;;;;;15.30;9.27;;;384.70;2329.60;;;;;;4974004;28;20031;-79
2021/09/21 05:37:35;;;;;;;18.08;11.48;;;384.70;2329.60;;;;;;4975703;28;20031;-79
2021/09/21 05:40:01;;;;;;;18.77;10.73;;;384.80;2329.60;;;;;;4977912;28;20081;-80
2021/09/21 05:42:27;;;;;;;16.15;10.20;;;384.80;2329.60;;;;;;4978409;28;20038;-81
2021/09/21 05:44:54;;;;;;;18.17;11.02;;;384.80;2329.60;;;;;;4982792;28;20038;-80
2021/09/21 05:47:20;;;;;;;17.30;10.80;;;384.90;2329.60;;;;;;4987488;28;20034;-82
2021/09/21 05:49:46;;;;;;;17.17;10.60;;;384.70;2329.60;;;;;;4968296;28;20070;-81
2021/09/21 05:52:12;;;;;;;16.25;10.23;;;384.90;2329.60;;;;;;4987420;28;20034;-81
2021/09/21 05:54:39;;;;;;;19.35;10.57;;;409.60;2355.20;;;;;;4985802;28;20043;-80
2021/09/21 05:57:08;;;;;;;15.65;11.20;;;384.90;2329.60;;;;;;4990579;28;20027;-81
2021/09/21 05:59:34;;;;;;;17.05;11.43;;;384.90;2329.60;;;;;;4986703;28;20031;-81
2021/09/21 06:01:59;;;;;;;19.30;11.43;;;409.60;2355.20;;;;;;4985697;28;20497;-81
2021/09/21 06:04:25;;;;;;;19.23;12.18;;;409.70;2355.20;;;;;;4986725;28;20077;-81
2021/09/21 06:06:55;;;;;;;20.27;11.88;;;409.60;2355.20;;;;;;4984746;28;20052;-80
2021/09/21 06:09:21;;;;;;;18.80;11.38;;;409.60;2355.20;;;;;;4984352;28;20054;-83
2021/09/21 06:11:47;;;;;;;17.60;11.07;;;409.60;2355.20;;;;;;4985333;28;20057;-82
2021/09/21 06:14:16;;;;;;;17.17;11.00;;;409.60;2355.20;;;;;;4984156;28;20050;-77
2021/09/21 06:16:41;;;;;;;18.67;12.02;;;409.70;2355.20;;;;;;4981333;28;20565;-82
2021/09/21 06:19:10;;;;;;;18.67;11.95;;;409.70;2355.20;;;;;;4985146;28;20027;-83
2021/09/21 06:21:36;;;;;;;17.83;11.25;;;409.70;2355.20;;;;;;4980428;28;20426;-80
2021/09/21 06:24:02;;;;;;;19.50;11.10;;;409.60;2355.20;;;;;;4987425;28;20051;-81
2021/09/21 06:26:28;;;;;;;15.82;9.63;;;409.60;2355.20;;;;;;4988092;28;20023;-85
2021/09/21 06:28:54;;;;;;;16.75;10.77;;;409.60;2355.20;;;;;;4979174;28;20054;-83
2021/09/21 06:31:21;;;;;;;17.98;11.70;;;409.60;2355.20;;;;;;4977642;28;20046;-84
2021/09/21 06:33:47;;;;;;;18.50;10.95;;;409.70;2355.20;;;;;;4975884;28;20510;-83
2021/09/21 06:36:13;;;;;;;16.42;10.45;;;409.70;2355.20;;;;;;4976278;28;20031;-83
2021/09/21 06:38:39;;;;;;;18.08;11.45;;;409.70;2355.20;;;;;;4977595;28;20026;-84
2021/09/21 06:41:06;;;;;;;19.17;10.38;;;409.80;2355.20;;;;;;4977088;28;20049;-84
2021/09/21 06:43:32;;;;;;;20.85;12.68;;;409.70;2355.20;;;;;;4976465;28;20041;-85
2021/09/21 06:45:57;;;;;;;17.23;10.77;;;409.70;2355.20;;;;;;4974674;28;20047;-77
2021/09/21 06:48:24;;;;;;;16.13;11.27;;;409.70;2355.20;;;;;;4973830;28;20022;-79
2021/09/21 06:50:51;;;;;;;18.52;11.38;;;409.80;2355.20;;;;;;4981393;28;20070;-78
2021/09/21 06:53:18;;;;;;;18.40;11.23;;;409.80;2355.20;;;;;;4985289;28;20023;-80
2021/09/21 06:55:47;;;;;;;18.95;10.70;;;409.80;2355.20;;;;;;4982830;28;20035;-79
2021/09/21 06:58:13;;;;;;;18.38;10.18;;;409.90;2355.20;;;;;;4985666;28;20105;-78
2021/09/21 07:00:49;;;;;;;17.02;11.27;;;409.90;2355.20;;;;;;4980197;28;20061;-80
2021/09/21 07:03:15;;;;;;;20.17;11.80;;;410.00;2355.20;;;;;;4988288;28;20450;-81
2021/09/21 07:05:41;;;;;;;17.10;11.45;;;410.00;2355.20;;;;;;4984827;28;20049;-78
2021/09/21 07:08:07;;;;;;;19.35;11.15;;;410.10;2355.20;;;;;;4960573;28;20026;-79
2021/09/21 07:10:33;;;;;;;18.38;10.70;;;410.10;2355.20;;;;;;4977869;28;20382;-79
2021/09/21 07:12:59;;;;;;;22.85;12.00;;;410.10;2355.20;;;;;;4976795;28;20510;-82
2021/09/21 07:15:25;;;;;;;17.75;11.60;;;410.00;2355.20;;;;;;4976937;28;20033;-78
2021/09/21 07:17:52;;;;;;;16.98;10.63;;;410.00;2355.20;;;;;;4979443;28;20058;-82
2021/09/21 07:20:18;;;;;;;18.65;11.52;;;409.90;2355.20;;;;;;4979672;28;20115;-82
2021/09/21 07:22:44;;;;;;;17.35;11.25;;;409.90;2355.20;;;;;;4981473;28;20488;-80
2021/09/21 07:25:10;;;;;;;18.50;11.90;;;410.00;2355.20;;;;;;4975532;28;20039;-81
2021/09/21 07:27:36;;;;;;;19.27;11.43;;;410.00;2355.20;;;;;;4974861;28;20050;-80
2021/09/21 07:30:03;;;;;;;20.08;11.32;;;410.00;2355.20;;;;;;4975351;28;20069;-79
2021/09/21 07:32:29;;;;;;;18.25;10.68;;;410.10;2355.20;;;;;;4974803;28;20054;-81
2021/09/21 07:34:55;;;;;;;18.88;11.68;;;410.10;2355.20;;;;;;4975236;28;20110;-79
2021/09/21 07:37:21;;;;;;;20.13;12.57;;;410.20;2355.20;;;;;;4975420;28;20106;-78
2021/09/21 07:39:47;;;;;;;20.88;12.18;;;410.20;2355.20;;;;;;4973572;28;20026;-78
2021/09/21 07:42:14;;;;;;;18.27;12.68;;;410.40;2355.20;;;;;;4975632;28;20034;-79
2021/09/21 07:44:40;;;;;;;15.95;10.60;;;410.40;2355.20;;;;;;4973428;28;20045;-78
2021/09/21 07:47:05;;;;;;;19.00;12.73;;;410.50;2355.20;;;;;;4975152;28;20031;-78
2021/09/21 07:49:31;;;;;;;18.33;11.00;;;435.20;2355.20;;;;;;4973459;28;20487;-79
2021/09/21 07:51:57;;;;;;;19.30;11.18;;;435.20;2355.20;;;;;;4973898;28;20537;-79
2021/09/21 07:54:24;;;;;;;18.83;10.43;;;435.30;2355.20;;;;;;4974911;28;20059;-80
2021/09/21 07:56:49;;;;;;;24.30;12.77;;;435.30;2355.20;;;;;;4973932;28;20038;-80
2021/09/21 07:59:15;;;;;;;23.02;14.18;;;435.30;2355.20;;;;;;4973984;28;20027;-80
2021/09/21 08:01:41;;;;;;;19.45;12.00;;;435.40;2355.20;;;;;;4973184;28;20360;-80
2021/09/21 08:04:07;;;;;;;23.45;14.52;;;435.40;2355.20;;;;;;4975274;28;20085;-80
2021/09/21 08:06:33;;;;;;;17.92;11.68;;;435.30;2355.20;;;;;;4975413;28;20093;-79
2021/09/21 08:08:59;;;;;;;19.52;12.40;;;435.30;2355.20;;;;;;4982152;28;20043;-79
2021/09/21 08:11:29;;;;;;;16.58;10.65;;;435.30;2355.20;;;;;;4988288;28;20033;-81
2021/09/21 08:13:56;;;;;;;18.08;12.63;;;435.30;2355.20;;;;;;4987469;28;20034;-79
2021/09/21 08:16:24;;;;;;;19.02;11.68;;;435.30;2355.20;;;;;;4987222;28;20026;-82
2021/09/21 08:18:53;;;;;;;19.98;12.02;;;435.30;2355.20;;;;;;4986760;28;20042;-80
2021/09/21 08:21:26;;;;;;;19.23;12.05;;;435.40;2355.20;;;;;;4950917;28;20059;-79
2021/09/21 08:23:54;;;;;;;22.10;11.35;;;435.60;2355.20;;;;;;4988299;28;20042;-81
2021/09/21 08:26:20;;;;;;;17.77;11.50;;;435.50;2355.20;;;;;;4977413;28;20039;-80
2021/09/21 08:28:49;;;;;;;17.50;11.43;;;435.60;2355.20;;;;;;4977436;28;20020;-81
2021/09/21 08:31:15;;;;;;;17.73;11.95;;;435.50;2355.20;;;;;;4981024;28;20125;-80
2021/09/21 08:33:41;;;;;;;17.10;10.82;;;435.50;2355.20;;;;;;4958737;28;20527;-79
2021/09/21 08:36:07;;;;;;;18.65;11.68;;;435.30;2355.20;;;;;;4975773;28;20067;-80
2021/09/21 08:38:32;;;;;;;18.90;11.52;;;435.30;2355.20;;;;;;4976112;28;20090;-81
2021/09/21 08:40:59;;;;;;;17.15;11.20;;;410.50;2355.20;;;;;;4973962;28;20039;-87
2021/09/21 08:43:25;;;;;;;17.75;10.13;;;410.50;2355.20;;;;;;4956340;28;20027;-85
2021/09/21 08:45:51;;;;;;;16.83;10.50;;;435.30;2355.20;;;;;;4955162;28;20033;-84
2021/09/21 08:48:16;;;;;;;16.42;10.98;;;435.30;2355.20;;;;;;4955308;29;20031;-90
2021/09/21 08:50:44;;;;;;;19.00;12.10;;;435.30;2355.20;;;;;;4956001;29;20031;-87
2021/09/21 08:53:09;;;;;;;17.15;11.23;;;435.30;2355.20;;;;;;4959654;29;20042;-88
2021/09/21 08:55:35;;;;;;;19.83;11.57;;;435.30;2355.20;;;;;;4975365;28;20035;-86
2021/09/21 08:58:01;;;;;;;17.80;11.45;;;435.20;2355.20;;;;;;4971545;28;20031;-87
2021/09/21 09:00:30;;;;;;;17.83;11.23;;;435.30;2355.20;;;;;;4975887;28;20034;-84
2021/09/21 09:03:05;;;;;;;17.73;10.68;;;435.30;2355.20;;;;;;4975261;28;20023;-85
2021/09/21 09:06:04;;;;;;;19.83;10.00;;;435.30;2355.20;;;;;;4975791;28;20045;-90
2021/09/21 09:08:33;;;;;;;18.27;11.23;;;435.50;2355.20;;;;;;4921801;29;20060;-93
2021/09/21 09:11:10;;;;;;;17.75;11.60;;;435.60;2355.20;;;;;;4929595;29;20043;-93
2021/09/21 09:13:36;;;;;;;18.08;11.55;;;435.60;2355.20;;;;;;4939486;29;20043;-94
2021/09/21 09:16:06;;;;;;;18.42;10.73;;;435.50;2355.20;;;;;;4922462;29;20027;-94
2021/09/21 09:18:32;;;;;;;19.27;11.93;;;435.50;2355.20;;;;;;4922992;29;20028;-93
2021/09/21 09:20:59;;;;;;;16.40;10.30;;;435.60;2355.20;;;;;;4924612;29;20045;-94
2021/09/21 09:23:25;;;;;;;19.58;11.88;;;435.60;2304.00;;;;;;4942550;29;20087;-93
2021/09/21 09:25:51;;;;;;;17.48;10.45;;;435.60;2329.60;;;;;;4931260;29;20036;-91
2021/09/21 09:28:20;;;;;;;14.63;9.65;;;435.60;2329.60;;;;;;4934775;29;20040;-85
2021/09/21 09:30:47;;;;;;;16.15;9.45;;;435.60;2329.60;;;;;;4936600;29;20031;-83
2021/09/21 09:33:13;;;;;;;14.65;8.95;;;435.60;2304.00;;;;;;4930718;29;20122;-87
2021/09/21 09:35:43;;;;;;;12.52;7.70;;;435.60;2355.20;;;;;;4927690;29;20032;-89
2021/09/21 09:38:11;;;;;;;12.48;8.15;;;435.70;2278.40;;;;;;4913173;29;20055;-90
2021/09/21 09:40:45;;;;;;;13.30;8.90;;;435.70;2252.80;;;;;;4923474;29;20162;-86
2021/09/21 09:43:13;;;;;;;13.90;8.60;;;435.70;2252.80;;;;;;4941996;29;20039;-88
2021/09/21 09:45:41;;;;;;;16.10;10.38;;;435.80;2278.40;;;;;;4974766;28;20046;-90
2021/09/21 09:48:10;;;;;;;14.25;9.40;;;435.80;2252.80;;;;;;4982769;28;20049;-86
2021/09/21 09:50:42;;;;;;;14.52;9.90;;;435.80;2227.20;;;;;;4985101;28;20035;-87
2021/09/21 09:53:09;;;;;;;13.73;9.10;;;435.80;2252.80;;;;;;4979704;28;20018;-88
2021/09/21 09:55:36;;;;;;;14.88;9.85;;;435.80;2252.80;;;;;;4982320;28;20031;-88
2021/09/21 09:58:04;;;;;;;14.77;9.70;;;435.80;2278.40;;;;;;4973908;28;20031;-87
2021/09/21 10:00:31;;;;;;;15.60;9.50;;;435.70;2252.80;;;;;;4976384;28;20038;-87
2021/09/21 10:02:57;;;;;;;13.55;8.63;;;435.60;2278.40;;;;;;4977366;28;20042;-92
2021/09/21 10:05:23;;;;;;;14.98;9.90;;;435.60;2304.00;;;;;;4990055;28;20062;-86
2021/09/21 10:07:49;;;;;;;13.02;8.25;;;435.50;2304.00;;;;;;4980076;28;20069;-87
2021/09/21 10:10:16;;;;;;;13.80;9.25;;;435.50;2329.60;;;;;;4978802;28;20035;-89
2021/09/21 10:12:43;;;;;;;13.93;9.43;;;435.50;2304.00;;;;;;4977079;28;20019;-89
2021/09/21 10:15:10;;;;;;;16.42;10.40;;;435.50;2329.60;;;;;;4980513;28;20126;-91
2021/09/21 10:17:47;;;;;;;15.60;9.63;;;435.50;2329.60;;;;;;4986646;28;20134;-88
2021/09/21 10:20:13;;;;;;;15.90;9.50;;;435.40;2304.00;;;;;;4989676;28;20106;-89
2021/09/21 10:22:39;;;;;;;14.80;9.98;;;435.50;2304.00;;;;;;4996630;28;20039;-83
2021/09/21 10:25:08;;;;;;;13.98;9.15;;;435.50;2304.00;;;;;;4999019;28;20038;-85
2021/09/21 10:27:38;;;;;;;11.30;8.38;;;435.50;2304.00;;;;;;5000948;28;20007;-86
2021/09/21 10:30:10;;;;;;;11.38;7.90;;;435.50;2278.40;;;;;;5000032;28;20011;-86
2021/09/21 10:32:43;;;;;;;14.98;9.15;;;435.50;2278.40;;;;;;5000222;28;20074;-83
2021/09/21 10:35:11;;;;;;;12.18;8.73;;;435.40;2304.00;;;;;;5000352;28;20022;-84
2021/09/21 10:37:37;;;;;;;12.48;9.57;;;435.40;2304.00;;;;;;4992831;28;20046;-82
2021/09/21 10:40:05;;;;;;;15.00;10.13;;;435.40;2304.00;;;;;;4990068;28;20476;-84
2021/09/21 10:42:32;;;;;;;14.25;10.90;;;435.30;2304.00;;;;;;4983349;28;20041;-82
2021/09/21 10:45:01;;;;;;;13.52;8.68;;;435.40;2329.60;;;;;;4987802;28;20046;-82
2021/09/21 10:47:30;;;;;;;13.20;9.18;;;435.30;2355.20;;;;;;4994231;28;20047;-83
2021/09/21 10:50:10;;;;;;;11.77;8.52;;;435.30;2355.20;;;;;;4977163;28;20132;-86
2021/09/21 10:52:37;;;;;;;12.70;9.45;;;435.30;2355.20;;;;;;4992710;28;20026;-92
2021/09/21 10:55:17;;;;;;;14.63;9.02;;;435.30;2355.20;;;;;;4985648;28;20027;-90
2021/09/21 10:57:45;;;;;;;14.10;10.05;;;435.30;2355.20;;;;;;4996169;28;20051;-91
2021/09/21 11:00:20;;;;;;;17.33;9.80;;;435.20;2355.20;;;;;;4994691;28;20038;-84
2021/09/21 11:02:49;;;;;;;14.93;9.63;;;410.50;2355.20;;;;;;4995779;28;20031;-90
2021/09/21 11:05:17;;;;;;;15.20;9.48;;;410.50;2355.20;;;;;;4989652;28;20037;-88
2021/09/21 11:07:53;;;;;;;15.35;10.48;;;410.50;2355.20;;;;;;4984332;28;20054;-87
2021/09/21 11:10:20;;;;;;;17.98;11.20;;;410.40;2355.20;;;;;;4983887;28;20031;-87
2021/09/21 11:12:48;;;;;;;16.13;10.80;;;410.40;2355.20;;;;;;4987090;28;20070;-87
2021/09/21 11:15:17;;;;;;;21.02;11.88;;;410.40;2355.20;;;;;;4993042;28;20027;-87
2021/09/21 11:17:44;;;;;;;16.20;11.18;;;410.40;2355.20;;;;;;4987778;28;20038;-89
2021/09/21 11:20:10;;;;;;;18.35;11.98;;;410.30;2355.20;;;;;;4976869;28;20050;-94
2021/09/21 11:22:39;;;;;;;19.55;11.57;;;410.20;2355.20;;;;;;4976827;28;20027;-94
2021/09/21 11:25:11;;;;;;;16.15;10.63;;;410.20;2355.20;;;;;;4985629;28;20127;-83
2021/09/21 11:27:42;;;;;;;17.60;10.70;;;410.20;2355.20;;;;;;4986414;28;20030;-90
2021/09/21 11:30:23;;;;;;;15.65;10.82;;;410.10;2355.20;;;;;;4995218;28;20491;-84
2021/09/21 11:32:49;;;;;;;16.02;10.40;;;410.00;2355.20;;;;;;4975257;28;20079;-81
2021/09/21 11:35:18;;;;;;;16.25;10.50;;;410.00;2355.20;;;;;;4978179;28;20046;-84
2021/09/21 11:37:57;;;;;;;14.57;10.48;;;410.00;2355.20;;;;;;4989048;28;20086;-88
2021/09/21 11:40:37;;;;;;;17.48;11.73;;;410.10;2355.20;;;;;;4990771;28;20023;-87
2021/09/21 11:43:03;;;;;;;19.73;12.60;;;410.10;2355.20;;;;;;4976738;28;20031;-88
2021/09/21 11:45:29;;;;;;;18.67;11.13;;;410.10;2355.20;;;;;;4978276;28;20050;-87
2021/09/21 11:47:56;;;;;;;22.02;13.23;;;410.10;2355.20;;;;;;4984678;28;20027;-88
2021/09/21 11:50:29;;;;;;;22.73;13.00;;;410.10;2355.20;;;;;;4983824;28;20034;-91
2021/09/21 11:52:58;;;;;;;18.80;12.15;;;410.10;2355.20;;;;;;4981299;28;20035;-89
2021/09/21 11:55:28;;;;;;;19.48;13.18;;;410.00;2355.20;;;;;;4978916;28;20103;-85
2021/09/21 11:57:54;;;;;;;19.27;12.25;;;410.00;2355.20;;;;;;4987177;28;20027;-86
2021/09/21 12:00:23;;;;;;;20.02;12.65;;;410.10;2355.20;;;;;;4984605;28;20090;-88
2021/09/21 12:02:57;;;;;;;19.20;13.27;;;410.10;2355.20;;;;;;4983824;28;20041;-91
2021/09/21 12:05:26;;;;;;;19.75;12.95;;;410.10;2355.20;;;;;;4986449;28;20027;-87
2021/09/21 12:08:05;;;;;;;19.02;12.13;;;410.00;2355.20;;;;;;4996530;28;20031;-92
2021/09/21 12:10:32;;;;;;;30.83;17.00;;;410.00;2355.20;;;;;;4968379;28;20046;-86
2021/09/21 12:13:15;;;;;;;26.23;15.60;;;409.90;2355.20;;;;;;4946702;29;20075;-92
2021/09/21 12:15:50;;;;;;;16.65;11.70;;;409.80;2355.20;;;;;;4950074;28;20020;-92